Time;durP1;ratioP1;P1;durP2;ratioP2;P2;SDS_P1;SDS_P2;PMS_P1;PMS_P2;Temp;Humidity;BMP_temperature;BMP_pressure;BME280_temperature;BME280_humidity;BME280_pressure;Samples;Min_cycle;Max_cycle;Signal;HPM_P1;HPM_P2
2023/05/13 00:02:14;;;;;;;6.45;4.72;;;16.80;56.40;;;;;;5043331;28;20053;-34
2023/05/13 00:04:42;;;;;;;6.43;4.32;;;16.80;56.50;;;;;;5044808;28;20064;-39
2023/05/13 00:07:10;;;;;;;7.82;4.55;;;16.80;56.50;;;;;;5044789;28;20052;-34
2023/05/13 00:09:37;;;;;;;4.10;3.60;;;16.70;56.50;;;;;;5045144;28;20060;-34
2023/05/13 00:12:05;;;;;;;6.07;4.57;;;16.70;56.40;;;;;;5041941;28;20064;-34
2023/05/13 00:14:33;;;;;;;6.55;4.00;;;16.70;56.50;;;;;;5043516;28;20511;-37
2023/05/13 00:17:03;;;;;;;4.30;3.80;;;16.70;56.50;;;;;;5041609;28;20060;-36
2023/05/13 00:19:30;;;;;;;9.40;4.60;;;16.70;56.50;;;;;;5043177;28;20053;-36
2023/05/13 00:21:57;;;;;;;5.60;4.63;;;16.60;56.50;;;;;;5043651;28;20417;-36
2023/05/13 00:24:26;;;;;;;5.15;4.32;;;16.60;56.60;;;;;;5043617;28;20056;-35
2023/05/13 00:26:53;;;;;;;5.97;4.70;;;16.60;56.70;;;;;;5044526;28;20061;-35
2023/05/13 00:29:21;;;;;;;6.55;4.75;;;16.60;56.70;;;;;;5043755;28;20385;-34
2023/05/13 00:31:48;;;;;;;10.63;5.20;;;16.60;56.80;;;;;;5042653;28;20083;-34
2023/05/13 00:34:15;;;;;;;6.57;4.93;;;16.60;56.90;;;;;;5043224;28;20057;-34
2023/05/13 00:36:42;;;;;;;6.18;5.03;;;16.60;57.00;;;;;;5042229;28;20057;-37
2023/05/13 00:39:10;;;;;;;7.03;4.70;;;16.60;57.00;;;;;;5043115;28;20059;-35
2023/05/13 00:41:39;;;;;;;8.07;5.10;;;16.50;57.00;;;;;;5043316;28;20060;-34
2023/05/13 00:44:06;;;;;;;7.53;4.65;;;16.60;57.20;;;;;;5045227;28;20065;-34
2023/05/13 00:46:34;;;;;;;6.32;4.10;;;16.60;57.20;;;;;;5042107;28;20059;-35
2023/05/13 00:49:02;;;;;;;5.95;4.63;;;16.50;57.10;;;;;;5042510;28;20052;-37
2023/05/13 00:51:29;;;;;;;6.43;4.07;;;16.50;57.10;;;;;;5042880;28;20064;-34
2023/05/13 00:53:59;;;;;;;5.45;4.00;;;16.50;57.20;;;;;;5042690;28;20056;-37
2023/05/13 00:56:26;;;;;;;4.45;4.05;;;16.50;57.20;;;;;;5042505;28;20060;-34
2023/05/13 00:58:55;;;;;;;6.28;4.70;;;16.50;57.20;;;;;;5043570;28;20412;-37
2023/05/13 01:01:30;;;;;;;6.10;4.63;;;16.50;57.20;;;;;;5049200;22;20058;-46
2023/05/13 01:04:11;;;;;;;5.53;4.55;;;16.50;57.20;;;;;;5003838;28;20053;-47
2023/05/13 01:06:49;;;;;;;7.22;4.32;;;16.50;57.20;;;;;;5003597;28;20523;-46
2023/05/13 01:09:30;;;;;;;6.30;4.40;;;16.50;57.20;;;;;;5002780;28;20058;-44
2023/05/13 01:12:03;;;;;;;6.93;4.47;;;16.50;57.10;;;;;;5002643;28;20512;-46
2023/05/13 01:14:36;;;;;;;9.75;4.32;;;16.50;57.10;;;;;;5003143;28;20049;-46
2023/05/13 01:17:11;;;;;;;4.80;4.00;;;16.40;57.10;;;;;;4999812;28;20049;-45
2023/05/13 01:19:41;;;;;;;;;;;16.40;57.10;;;;;;5004549;28;20057;-46
2023/05/13 01:22:10;;;;;;;9.82;4.28;;;16.40;57.10;;;;;;5002200;28;20007;-45
2023/05/13 01:24:37;;;;;;;6.45;3.95;;;16.40;56.90;;;;;;5003126;28;20054;-47
2023/05/13 01:27:05;;;;;;;5.10;4.40;;;16.30;56.90;;;;;;5002395;28;20046;-46
2023/05/13 01:29:32;;;;;;;5.30;4.13;;;16.30;56.90;;;;;;5001866;28;20068;-46
2023/05/13 01:32:02;;;;;;;9.15;4.97;;;16.30;56.90;;;;;;4999218;28;20053;-45
2023/05/13 01:34:30;;;;;;;6.72;4.45;;;16.20;56.90;;;;;;5004286;28;20058;-46
2023/05/13 01:36:58;;;;;;;5.80;4.47;;;16.20;57.00;;;;;;5003016;28;20050;-46
2023/05/13 01:39:28;;;;;;;5.47;4.35;;;16.20;57.00;;;;;;5003129;28;20493;-46
2023/05/13 01:41:55;;;;;;;4.97;3.72;;;16.10;57.00;;;;;;5001861;28;20046;-45
2023/05/13 01:44:23;;;;;;;7.35;4.25;;;16.10;57.10;;;;;;5002791;28;20057;-46
2023/05/13 01:46:50;;;;;;;4.00;3.42;;;16.10;57.10;;;;;;5000371;28;20041;-45
2023/05/13 01:49:17;;;;;;;5.25;4.05;;;16.00;57.10;;;;;;5002846;28;20149;-46
2023/05/13 01:51:44;;;;;;;7.38;4.47;;;16.00;57.20;;;;;;5004181;28;20045;-46
2023/05/13 01:54:11;;;;;;;7.05;3.97;;;16.00;57.30;;;;;;5002756;28;20054;-46
2023/05/13 01:56:40;;;;;;;4.85;4.35;;;16.00;57.30;;;;;;5001893;28;20416;-46
2023/05/13 01:59:09;;;;;;;4.78;4.22;;;15.90;57.70;;;;;;5002245;28;20061;-47
2023/05/13 02:01:39;;;;;;;4.97;3.78;;;15.80;57.10;;;;;;5000726;28;20062;-45
2023/05/13 02:04:06;;;;;;;6.18;4.13;;;15.80;57.20;;;;;;5002460;28;20054;-46
2023/05/13 02:06:33;;;;;;;4.43;4.00;;;15.80;57.30;;;;;;5001497;28;20486;-45
2023/05/13 02:09:01;;;;;;;5.32;4.03;;;15.80;57.40;;;;;;5003236;28;20050;-48
2023/05/13 02:11:28;;;;;;;7.22;4.40;;;15.70;57.30;;;;;;5002259;28;20077;-46
2023/05/13 02:13:57;;;;;;;5.53;4.45;;;15.70;57.40;;;;;;5006532;28;20424;-45
2023/05/13 02:16:24;;;;;;;8.70;4.40;;;15.60;57.30;;;;;;5004036;28;20050;-46
2023/05/13 02:18:51;;;;;;;4.95;4.45;;;15.60;57.40;;;;;;5007240;28;20050;-46
2023/05/13 02:21:19;;;;;;;7.47;4.72;;;15.50;57.40;;;;;;5007294;28;20056;-45
2023/05/13 02:23:46;;;;;;;7.45;4.50;;;15.50;57.40;;;;;;5006054;28;20057;-45
2023/05/13 02:26:13;;;;;;;5.20;4.25;;;15.50;57.50;;;;;;5006957;28;20061;-45
2023/05/13 02:28:40;;;;;;;8.77;6.00;;;15.50;57.60;;;;;;5006748;28;20516;-47
2023/05/13 02:31:09;;;;;;;7.70;5.55;;;15.40;57.70;;;;;;5003663;28;20056;-45
2023/05/13 02:33:36;;;;;;;5.93;4.88;;;15.40;57.90;;;;;;5004165;28;20050;-46
2023/05/13 02:36:05;;;;;;;6.85;4.82;;;15.30;57.90;;;;;;5005908;28;20061;-46
2023/05/13 02:38:32;;;;;;;8.55;4.63;;;15.40;58.10;;;;;;5005489;28;20060;-46
2023/05/13 02:41:00;;;;;;;5.95;4.28;;;15.30;58.10;;;;;;5006035;28;20058;-46
2023/05/13 02:43:28;;;;;;;6.45;4.70;;;15.30;58.20;;;;;;5005920;28;20164;-47
2023/05/13 02:45:56;;;;;;;7.65;3.88;;;15.30;58.10;;;;;;5003465;28;20057;-48
2023/05/13 02:48:24;;;;;;;7.53;4.47;;;15.30;58.00;;;;;;5005819;28;20050;-45
2023/05/13 02:50:51;;;;;;;7.07;3.97;;;15.30;57.90;;;;;;5005757;28;20423;-45
2023/05/13 02:53:19;;;;;;;6.30;4.38;;;15.20;57.80;;;;;;5006119;28;20061;-45
2023/05/13 02:55:46;;;;;;;6.45;4.35;;;15.20;57.90;;;;;;5005890;28;20065;-47
2023/05/13 02:58:13;;;;;;;4.85;4.15;;;15.20;57.90;;;;;;5005878;28;20484;-46
2023/05/13 03:00:41;;;;;;;5.10;3.90;;;15.10;57.90;;;;;;5004461;28;20060;-48
2023/05/13 03:03:09;;;;;;;6.65;4.30;;;15.10;57.90;;;;;;5005502;28;20445;-43
2023/05/13 03:05:37;;;;;;;8.77;4.55;;;15.10;57.90;;;;;;5005649;28;20489;-44
2023/05/13 03:08:05;;;;;;;5.05;4.30;;;15.00;57.80;;;;;;5005270;28;20394;-44
2023/05/13 03:10:32;;;;;;;7.78;4.57;;;15.00;57.80;;;;;;5005153;28;20476;-47
2023/05/13 03:12:59;;;;;;;7.07;4.75;;;15.00;57.90;;;;;;5005222;28;20058;-46
2023/05/13 03:15:27;;;;;;;8.57;5.00;;;14.90;57.90;;;;;;5004609;28;20133;-46
2023/05/13 03:17:54;;;;;;;6.60;4.97;;;14.90;58.10;;;;;;5003053;28;20052;-44
2023/05/13 03:20:21;;;;;;;7.40;4.90;;;14.90;58.10;;;;;;5004823;28;20065;-44
2023/05/13 03:22:50;;;;;;;5.38;4.75;;;14.80;58.40;;;;;;5005585;28;20420;-45
2023/05/13 03:25:17;;;;;;;4.80;4.30;;;14.80;58.20;;;;;;5005172;28;20050;-44
2023/05/13 03:27:44;;;;;;;8.85;5.30;;;14.70;58.20;;;;;;5004550;28;20050;-44
2023/05/13 03:30:12;;;;;;;6.70;5.30;;;14.70;58.30;;;;;;5018185;23;20413;-45
2023/05/13 03:32:40;;;;;;;9.10;5.07;;;14.70;58.40;;;;;;5023576;28;20057;-45
2023/05/13 03:35:08;;;;;;;6.78;5.38;;;14.70;58.50;;;;;;5024553;28;20057;-47
2023/05/13 03:37:35;;;;;;;7.10;5.55;;;14.70;58.50;;;;;;5024935;28;20056;-44
2023/05/13 03:40:04;;;;;;;6.65;5.68;;;14.70;58.60;;;;;;5024606;28;20056;-45
2023/05/13 03:42:32;;;;;;;7.63;4.97;;;14.70;58.70;;;;;;5024184;28;20053;-44
2023/05/13 03:44:59;;;;;;;6.55;5.25;;;14.60;58.70;;;;;;5022734;28;20049;-44
2023/05/13 03:47:26;;;;;;;5.90;5.05;;;14.60;58.80;;;;;;5022299;28;20061;-46
2023/05/13 03:49:54;;;;;;;7.22;5.43;;;14.60;58.80;;;;;;5023739;28;20694;-47
2023/05/13 03:52:21;;;;;;;6.43;4.90;;;14.60;58.80;;;;;;5025917;28;20080;-45
2023/05/13 03:54:49;;;;;;;5.78;4.43;;;14.60;58.80;;;;;;5024608;28;20045;-44
2023/05/13 03:57:17;;;;;;;7.38;5.28;;;14.60;58.80;;;;;;5026426;28;20440;-44
2023/05/13 03:59:45;;;;;;;10.40;6.18;;;14.60;58.80;;;;;;5024633;28;20408;-46
2023/05/13 04:02:12;;;;;;;8.77;6.03;;;14.50;58.60;;;;;;5020009;28;20058;-44
2023/05/13 04:04:39;;;;;;;10.10;6.35;;;14.50;58.40;;;;;;5019434;28;20358;-46
2023/05/13 04:07:07;;;;;;;8.95;6.13;;;14.50;58.50;;;;;;5017046;28;20050;-44
2023/05/13 04:09:34;;;;;;;7.55;5.80;;;14.40;58.80;;;;;;5019969;28;20057;-45
2023/05/13 04:12:02;;;;;;;7.25;5.65;;;14.30;58.90;;;;;;5018890;28;20068;-44
2023/05/13 04:14:30;;;;;;;6.20;4.80;;;14.20;59.00;;;;;;5017156;28;20057;-44
2023/05/13 04:16:58;;;;;;;5.57;4.60;;;14.20;59.20;;;;;;5015781;28;20378;-46
2023/05/13 04:19:25;;;;;;;6.00;4.72;;;14.20;59.40;;;;;;5017075;28;20053;-47
2023/05/13 04:21:52;;;;;;;7.20;4.60;;;14.10;59.50;;;;;;5019038;28;20918;-45
2023/05/13 04:24:20;;;;;;;5.47;4.15;;;14.10;60.10;;;;;;5021168;28;20539;-45
2023/05/13 04:26:47;;;;;;;5.60;4.10;;;14.10;59.60;;;;;;5020363;28;20049;-44
2023/05/13 04:29:16;;;;;;;5.07;3.78;;;14.10;59.60;;;;;;5016213;28;20470;-45
2023/05/13 04:31:44;;;;;;;5.57;4.05;;;14.10;59.60;;;;;;5017396;28;20052;-47
2023/05/13 04:34:11;;;;;;;5.28;3.85;;;14.10;59.50;;;;;;5015692;28;20623;-49
2023/05/13 04:36:39;;;;;;;5.60;4.35;;;14.10;59.30;;;;;;5020625;28;20050;-45
2023/05/13 04:39:06;;;;;;;5.00;4.15;;;14.10;59.20;;;;;;5019747;28;20424;-45
2023/05/13 04:41:33;;;;;;;8.02;4.47;;;14.10;59.20;;;;;;5019409;28;20053;-46
2023/05/13 04:44:01;;;;;;;6.38;4.38;;;14.00;59.20;;;;;;5017331;28;20054;-44
2023/05/13 04:46:28;;;;;;;6.65;5.07;;;14.00;59.30;;;;;;5014448;28;20416;-47
2023/05/13 04:48:57;;;;;;;9.30;5.40;;;14.00;59.30;;;;;;5018607;28;20064;-47
2023/05/13 04:51:25;;;;;;;7.53;5.25;;;14.00;59.50;;;;;;5019557;28;20058;-44
2023/05/13 04:53:52;;;;;;;5.65;4.65;;;14.00;59.60;;;;;;5015688;28;20508;-49
2023/05/13 04:56:20;;;;;;;5.95;4.18;;;14.00;59.60;;;;;;5017597;28;20158;-46
2023/05/13 04:58:47;;;;;;;6.20;5.07;;;14.00;59.70;;;;;;5012624;28;20434;-45
2023/05/13 05:01:15;;;;;;;8.02;5.60;;;14.00;59.80;;;;;;5001184;28;20053;-47
2023/05/13 05:03:42;;;;;;;7.25;5.05;;;14.00;59.90;;;;;;5004802;28;20756;-44
2023/05/13 05:06:10;;;;;;;7.35;5.72;;;14.10;60.20;;;;;;5014503;28;20409;-44
2023/05/13 05:08:38;;;;;;;9.00;6.55;;;14.10;60.40;;;;;;5013864;28;20751;-46
2023/05/13 05:11:05;;;;;;;10.98;6.90;;;14.10;60.60;;;;;;5016531;28;20053;-45
2023/05/13 05:13:33;;;;;;;7.95;6.40;;;14.10;60.90;;;;;;5013435;28;20423;-45
2023/05/13 05:16:00;;;;;;;9.32;6.60;;;14.20;61.20;;;;;;5014958;28;20064;-45
2023/05/13 05:18:27;;;;;;;8.70;7.07;;;14.20;61.40;;;;;;5017400;28;20046;-45
2023/05/13 05:20:54;;;;;;;5.72;4.60;;;14.20;61.50;;;;;;5015993;28;20057;-44
2023/05/13 05:23:23;;;;;;;8.55;4.53;;;14.30;61.60;;;;;;5012415;28;20232;-44
2023/05/13 05:25:51;;;;;;;7.32;5.40;;;14.30;61.60;;;;;;5016778;28;20057;-44
2023/05/13 05:28:18;;;;;;;7.43;5.68;;;14.40;61.70;;;;;;5014653;28;20057;-44
2023/05/13 05:30:45;;;;;;;9.27;5.43;;;14.40;61.70;;;;;;5013429;28;20435;-48
2023/05/13 05:33:13;;;;;;;6.75;5.47;;;14.50;61.70;;;;;;5013017;28;20052;-46
2023/05/13 05:35:40;;;;;;;6.13;4.32;;;14.60;61.80;;;;;;5016551;28;20501;-44
2023/05/13 05:38:08;;;;;;;82.18;37.88;;;14.60;61.80;;;;;;5015532;28;20436;-45
2023/05/13 05:40:40;;;;;;;32.67;16.70;;;14.60;61.80;;;;;;5014905;28;20061;-44
2023/05/13 05:43:07;;;;;;;12.02;7.38;;;14.70;61.90;;;;;;5012526;28;20064;-44
2023/05/13 05:45:35;;;;;;;8.88;6.30;;;14.70;61.70;;;;;;5017438;28;20053;-44
2023/05/13 05:48:03;;;;;;;10.63;6.60;;;14.80;61.80;;;;;;5022170;28;20049;-45
2023/05/13 05:50:30;;;;;;;7.65;6.60;;;14.80;62.00;;;;;;5021663;28;20053;-45
2023/05/13 05:52:58;;;;;;;8.60;6.72;;;14.80;62.10;;;;;;5019651;28;20061;-46
2023/05/13 05:55:26;;;;;;;10.95;7.53;;;14.90;62.30;;;;;;5022642;28;20527;-43
2023/05/13 05:57:55;;;;;;;32.63;8.30;;;15.00;62.50;;;;;;5018055;28;20080;-44
2023/05/13 06:00:23;;;;;;;11.57;7.78;;;15.00;62.80;;;;;;5020299;28;20527;-44
2023/05/13 06:02:50;;;;;;;11.13;8.20;;;15.10;62.80;;;;;;5017391;28;20057;-44
2023/05/13 06:05:18;;;;;;;12.98;8.27;;;15.10;62.90;;;;;;5022038;28;20053;-44
2023/05/13 06:07:45;;;;;;;9.07;6.95;;;15.20;63.00;;;;;;5023256;28;20060;-45
2023/05/13 06:10:12;;;;;;;9.18;7.25;;;15.30;63.10;;;;;;5021433;28;20497;-47
2023/05/13 06:12:40;;;;;;;9.05;6.72;;;15.40;63.10;;;;;;5020323;28;20053;-45
2023/05/13 06:15:10;;;;;;;8.88;6.50;;;15.40;63.00;;;;;;5021471;28;20465;-45
2023/05/13 06:17:37;;;;;;;9.20;6.65;;;15.50;63.00;;;;;;5018908;28;20061;-45
2023/05/13 06:20:06;;;;;;;8.45;6.78;;;15.50;63.00;;;;;;5021929;28;20481;-46
2023/05/13 06:22:33;;;;;;;11.32;7.22;;;15.60;63.10;;;;;;5020380;28;20060;-44
2023/05/13 06:25:00;;;;;;;11.40;7.88;;;15.60;63.10;;;;;;5020255;28;20060;-45
2023/05/13 06:27:27;;;;;;;14.15;8.95;;;15.80;63.30;;;;;;5019749;28;20060;-47
2023/05/13 06:29:55;;;;;;;12.52;9.02;;;15.80;63.30;;;;;;5018663;28;20050;-45
2023/05/13 06:32:23;;;;;;;13.55;9.40;;;15.90;63.30;;;;;;5018510;28;20049;-50
2023/05/13 06:34:51;;;;;;;16.42;10.38;;;16.00;63.40;;;;;;5018973;28;20508;-47
2023/05/13 06:37:18;;;;;;;15.57;10.65;;;16.00;63.30;;;;;;5015612;28;20050;-46
2023/05/13 06:39:45;;;;;;;10.50;8.02;;;16.10;63.00;;;;;;5017257;28;20516;-45
2023/05/13 06:42:13;;;;;;;12.23;8.88;;;16.20;62.70;;;;;;5019182;28;20168;-46
2023/05/13 06:44:40;;;;;;;16.52;9.95;;;16.20;62.10;;;;;;5021497;28;20496;-46
2023/05/13 06:47:09;;;;;;;13.02;8.90;;;16.20;61.30;;;;;;5018951;28;20413;-46
2023/05/13 06:49:37;;;;;;;11.25;8.65;;;16.20;60.90;;;;;;5021999;28;20041;-46
2023/05/13 06:52:05;;;;;;;12.05;7.95;;;16.20;60.90;;;;;;5015661;28;20053;-45
2023/05/13 06:54:32;;;;;;;13.90;8.48;;;16.30;60.60;;;;;;5021041;28;20061;-47
2023/05/13 06:57:00;;;;;;;12.57;8.88;;;16.30;60.40;;;;;;5017987;28;20057;-47
2023/05/13 06:59:29;;;;;;;10.18;7.70;;;16.30;60.10;;;;;;5020055;28;20045;-46
2023/05/13 07:01:56;;;;;;;10.30;7.85;;;16.40;60.00;;;;;;5014941;28;20084;-45
2023/05/13 07:04:24;;;;;;;11.60;7.72;;;16.40;59.90;;;;;;5021188;28;20504;-51
2023/05/13 07:06:53;;;;;;;8.95;7.32;;;16.40;59.80;;;;;;5016903;28;20057;-45
2023/05/13 07:09:20;;;;;;;12.30;8.15;;;16.50;59.70;;;;;;5018296;28;20064;-47
2023/05/13 07:11:48;;;;;;;8.13;6.38;;;16.50;59.70;;;;;;5019856;28;20057;-47
2023/05/13 07:14:15;;;;;;;9.57;6.72;;;16.50;59.50;;;;;;5020013;28;20057;-46
2023/05/13 07:16:43;;;;;;;10.35;6.80;;;16.60;59.20;;;;;;5016851;28;20056;-48
2023/05/13 07:19:10;;;;;;;8.38;6.45;;;16.60;59.10;;;;;;5018654;28;20049;-46
2023/05/13 07:21:38;;;;;;;13.25;7.40;;;16.70;59.30;;;;;;5017581;28;20056;-47
2023/05/13 07:24:07;;;;;;;11.52;7.05;;;16.70;59.60;;;;;;5017208;28;20497;-49
2023/05/13 07:26:34;;;;;;;10.05;7.22;;;16.80;59.70;;;;;;5017273;28;20457;-45
2023/05/13 07:29:02;;;;;;;9.15;7.20;;;16.80;59.60;;;;;;5018729;28;20060;-47
2023/05/13 07:31:30;;;;;;;9.98;6.90;;;16.90;59.50;;;;;;5019492;28;20490;-45
2023/05/13 07:33:57;;;;;;;9.93;7.75;;;16.90;59.80;;;;;;5022015;28;20088;-47
2023/05/13 07:36:25;;;;;;;9.82;7.40;;;17.00;60.00;;;;;;5021461;28;20049;-45
2023/05/13 07:38:52;;;;;;;10.43;7.00;;;17.10;60.00;;;;;;5023529;28;20060;-48
2023/05/13 07:41:21;;;;;;;7.93;6.15;;;17.10;60.00;;;;;;5021625;28;20054;-45
2023/05/13 07:43:48;;;;;;;15.52;7.47;;;17.20;60.00;;;;;;5022449;28;20056;-47
2023/05/13 07:46:15;;;;;;;8.60;6.47;;;17.30;59.30;;;;;;5019340;28;20493;-47
2023/05/13 07:48:43;;;;;;;10.38;6.82;;;17.30;59.30;;;;;;5018209;28;20072;-46
2023/05/13 07:51:10;;;;;;;9.35;6.47;;;17.30;59.40;;;;;;5020531;28;20085;-46
2023/05/13 07:53:37;;;;;;;9.05;6.35;;;17.40;59.20;;;;;;5019697;28;20686;-46
2023/05/13 07:56:05;;;;;;;9.50;6.30;;;17.50;59.10;;;;;;5018795;28;20049;-47
2023/05/13 07:58:34;;;;;;;8.18;6.35;;;17.50;58.90;;;;;;5015762;28;20059;-45
2023/05/13 08:01:01;;;;;;;8.70;5.95;;;17.60;58.40;;;;;;5018420;28;20060;-49
2023/05/13 08:03:28;;;;;;;11.05;6.15;;;17.70;58.10;;;;;;5019557;28;20409;-46
2023/05/13 08:05:55;;;;;;;8.15;5.70;;;17.70;58.40;;;;;;5017478;28;20060;-49
2023/05/13 08:08:23;;;;;;;11.68;6.20;;;17.70;58.20;;;;;;5015538;28;20057;-47
2023/05/13 08:10:50;;;;;;;6.88;5.43;;;17.80;57.90;;;;;;5013514;28;20049;-45
2023/05/13 08:13:17;;;;;;;8.43;5.60;;;17.80;57.40;;;;;;5018894;28;20473;-48
2023/05/13 08:15:46;;;;;;;7.82;5.72;;;17.80;57.60;;;;;;5019031;28;20049;-47
2023/05/13 08:18:13;;;;;;;5.35;4.50;;;17.90;57.40;;;;;;5015502;28;20417;-49
2023/05/13 08:20:40;;;;;;;8.02;5.03;;;17.90;57.30;;;;;;5015847;28;20061;-47
2023/05/13 08:23:07;;;;;;;12.00;5.25;;;18.00;57.30;;;;;;5018452;28;20509;-47
2023/05/13 08:25:35;;;;;;;7.72;4.90;;;18.10;57.20;;;;;;5016490;28;20049;-46
2023/05/13 08:28:03;;;;;;;10.00;5.40;;;18.10;56.70;;;;;;5018577;28;20392;-45
2023/05/13 08:30:30;;;;;;;6.97;4.97;;;18.10;56.30;;;;;;5018451;28;20057;-45
2023/05/13 08:32:59;;;;;;;6.30;4.85;;;18.20;56.50;;;;;;5016205;28;20523;-45
2023/05/13 08:35:26;;;;;;;9.20;4.93;;;18.30;56.00;;;;;;5017519;28;20560;-46
2023/05/13 08:37:53;;;;;;;7.15;4.82;;;18.30;55.50;;;;;;5015778;28;20064;-49
2023/05/13 08:40:21;;;;;;;8.30;5.00;;;18.40;55.00;;;;;;5016608;28;20733;-47
2023/05/13 08:42:50;;;;;;;7.00;3.92;;;18.40;54.40;;;;;;5014925;28;20064;-46
2023/05/13 08:45:20;;;;;;;6.45;4.50;;;18.40;54.80;;;;;;5014996;28;20064;-50
2023/05/13 08:47:51;;;;;;;8.43;4.63;;;18.50;53.60;;;;;;5015223;28;20145;-45
2023/05/13 08:50:21;;;;;;;7.90;4.53;;;18.60;54.00;;;;;;5017019;28;20053;-45
2023/05/13 08:52:52;;;;;;;6.93;4.40;;;18.60;53.50;;;;;;5015810;28;20107;-50
2023/05/13 08:55:19;;;;;;;7.80;4.25;;;18.70;53.60;;;;;;5018818;28;20060;-47
2023/05/13 08:57:48;;;;;;;5.55;4.32;;;18.80;53.90;;;;;;5014943;28;20545;-50
2023/05/13 09:00:15;;;;;;;5.68;4.32;;;18.80;53.50;;;;;;5014080;28;20056;-47
2023/05/13 09:02:43;;;;;;;7.97;4.97;;;18.90;53.40;;;;;;5015020;28;20153;-46
2023/05/13 09:05:11;;;;;;;7.03;4.35;;;18.90;53.50;;;;;;5016378;28;20054;-47
2023/05/13 09:07:41;;;;;;;6.35;3.80;;;19.00;53.20;;;;;;5018434;28;20049;-45
2023/05/13 09:10:10;;;;;;;10.23;4.75;;;19.10;53.50;;;;;;5018505;28;20500;-47
2023/05/13 09:12:45;;;;;;;6.50;4.18;;;19.10;52.70;;;;;;5019983;28;20053;-46
2023/05/13 09:15:14;;;;;;;4.47;3.58;;;19.20;52.20;;;;;;5021276;28;20507;-46
2023/05/13 09:17:42;;;;;;;7.93;5.53;;;19.20;52.50;;;;;;5021311;28;20057;-48
2023/05/13 09:20:12;;;;;;;8.02;5.00;;;19.30;52.70;;;;;;5020944;28;20508;-46
2023/05/13 09:22:47;;;;;;;9.23;4.90;;;19.30;52.60;;;;;;5021075;28;20057;-44
2023/05/13 09:25:16;;;;;;;4.78;3.67;;;19.40;52.60;;;;;;5022542;28;20049;-44
2023/05/13 09:27:45;;;;;;;4.75;3.78;;;19.50;52.90;;;;;;5015533;28;20053;-44
2023/05/13 09:30:13;;;;;;;7.22;3.97;;;19.50;52.80;;;;;;5015955;28;20053;-45
2023/05/13 09:32:42;;;;;;;7.60;4.45;;;19.60;52.60;;;;;;5016040;28;20421;-47
2023/05/13 09:35:15;;;;;;;4.93;3.67;;;19.60;52.50;;;;;;5021517;28;20056;-47
2023/05/13 09:37:47;;;;;;;7.57;4.03;;;19.70;52.70;;;;;;5020305;28;20056;-45
2023/05/13 09:40:16;;;;;;;6.97;4.43;;;19.80;52.80;;;;;;5021745;28;20049;-44
2023/05/13 09:42:44;;;;;;;6.88;4.15;;;19.90;51.80;;;;;;5021339;28;20064;-44
2023/05/13 09:45:13;;;;;;;9.32;4.13;;;20.00;50.50;;;;;;5016103;28;20059;-44
2023/05/13 09:47:41;;;;;;;12.73;4.25;;;20.10;51.30;;;;;;5012566;28;20851;-49
2023/05/13 09:50:11;;;;;;;10.57;4.90;;;20.20;51.40;;;;;;5014997;28;20053;-44
2023/05/13 09:52:39;;;;;;;6.68;3.70;;;20.20;50.30;;;;;;5011211;28;20057;-49
2023/05/13 09:55:10;;;;;;;31.55;10.57;;;20.30;50.00;;;;;;5019955;28;20099;-47
2023/05/13 09:57:39;;;;;;;55.30;14.88;;;20.40;50.40;;;;;;5014704;28;20046;-46
2023/05/13 10:00:08;;;;;;;20.05;8.45;;;20.40;51.00;;;;;;5013105;28;20054;-48
2023/05/13 10:02:35;;;;;;;6.72;4.65;;;20.50;51.50;;;;;;5014691;28;20413;-45
2023/05/13 10:05:03;;;;;;;4.65;3.80;;;20.50;52.00;;;;;;5018342;28;20493;-47
2023/05/13 10:07:33;;;;;;;8.52;3.55;;;20.50;51.40;;;;;;5018027;28;20068;-47
2023/05/13 10:10:02;;;;;;;4.80;3.65;;;20.50;51.30;;;;;;5015002;28;20049;-49
2023/05/13 10:12:33;;;;;;;6.18;3.83;;;20.60;51.40;;;;;;5016599;28;20513;-48
2023/05/13 10:15:02;;;;;;;6.13;3.95;;;20.50;51.30;;;;;;5016106;28;20061;-49
2023/05/13 10:17:30;;;;;;;10.60;4.43;;;20.60;50.10;;;;;;5012379;28;20060;-46
2023/05/13 10:19:57;;;;;;;6.68;4.53;;;20.60;50.50;;;;;;5018189;28;20385;-49
2023/05/13 10:22:28;;;;;;;6.68;3.90;;;20.70;50.90;;;;;;5017733;28;20412;-49
2023/05/13 10:24:57;;;;;;;7.18;3.75;;;20.70;49.10;;;;;;5018721;28;20411;-50
2023/05/13 10:27:29;;;;;;;5.72;3.80;;;20.80;48.90;;;;;;5015161;28;20057;-46
2023/05/13 10:29:59;;;;;;;3.75;3.10;;;20.80;49.70;;;;;;5018256;28;20390;-48
2023/05/13 10:32:29;;;;;;;4.88;3.53;;;20.90;49.80;;;;;;5018709;28;20057;-47
2023/05/13 10:35:01;;;;;;;5.93;3.20;;;21.10;50.10;;;;;;5020945;28;20057;-48
2023/05/13 10:37:46;;;;;;;6.03;3.00;;;21.20;48.90;;;;;;5021088;28;20049;-46
2023/05/13 10:40:31;;;;;;;10.95;4.50;;;21.30;48.70;;;;;;5023238;28;20045;-46
2023/05/13 10:43:10;;;;;;;18.02;6.50;;;21.40;48.40;;;;;;5022322;28;20049;-45
2023/05/13 10:45:39;;;;;;;11.43;5.00;;;21.60;48.60;;;;;;5020106;28;20056;-47
2023/05/13 10:48:07;;;;;;;7.63;4.45;;;21.70;48.00;;;;;;5021291;28;20053;-48
2023/05/13 10:50:37;;;;;;;6.65;3.80;;;21.70;47.60;;;;;;5020526;28;20041;-48
2023/05/13 10:53:08;;;;;;;8.07;4.20;;;21.70;47.00;;;;;;5021901;28;20496;-50
2023/05/13 10:55:44;;;;;;;5.20;3.88;;;21.80;47.40;;;;;;5022383;28;20527;-49
2023/05/13 10:58:13;;;;;;;14.82;5.00;;;21.80;48.20;;;;;;5022979;28;20057;-47
2023/05/13 11:00:43;;;;;;;14.25;4.57;;;21.60;51.50;;;;;;5013336;28;20050;-44
2023/05/13 11:03:15;;;;;;;14.35;5.10;;;21.50;52.50;;;;;;5014837;28;20095;-57
2023/05/13 11:05:46;;;;;;;8.05;4.40;;;21.20;53.10;;;;;;5021007;28;20507;-47
2023/05/13 11:08:38;;;;;;;11.88;4.88;;;20.90;53.00;;;;;;5018124;28;20152;-45
2023/05/13 11:11:33;;;;;;;7.07;3.78;;;20.60;53.90;;;;;;5019755;28;20060;-49
2023/05/13 11:14:06;;;;;;;;;;;20.30;54.10;;;;;;4981405;28;20053;-47
2023/05/13 11:16:36;;;;;;;8.20;3.85;;;20.00;53.70;;;;;;5018440;28;19920;-48
2023/05/13 11:19:04;;;;;;;4.97;3.08;;;19.60;52.90;;;;;;5019839;28;20080;-47
2023/05/13 11:21:32;;;;;;;11.18;4.10;;;19.30;53.80;;;;;;5021801;28;20060;-47
2023/05/13 11:24:04;;;;;;;9.32;3.83;;;19.00;54.20;;;;;;5021107;28;20554;-44
2023/05/13 11:26:49;;;;;;;8.25;3.67;;;18.70;54.80;;;;;;5018854;28;20720;-44
2023/05/13 11:29:28;;;;;;;9.20;3.30;;;18.40;55.70;;;;;;5017295;28;20052;-45
2023/05/13 11:31:58;;;;;;;7.93;3.40;;;18.10;55.40;;;;;;5019723;28;20500;-43
2023/05/13 11:34:26;;;;;;;8.13;3.63;;;17.90;55.40;;;;;;5016107;28;20058;-45
2023/05/13 11:36:58;;;;;;;7.13;3.80;;;17.70;55.80;;;;;;5019542;28;20049;-45
2023/05/13 11:39:26;;;;;;;7.88;3.65;;;17.40;56.50;;;;;;5022481;28;20409;-46
2023/05/13 11:41:56;;;;;;;7.28;3.45;;;17.30;57.00;;;;;;5021360;28;20049;-45
2023/05/13 11:44:24;;;;;;;9.15;4.00;;;17.10;57.60;;;;;;5017885;28;20057;-44
2023/05/13 11:46:53;;;;;;;10.68;4.13;;;17.00;58.20;;;;;;5021347;28;20053;-44
2023/05/13 11:49:46;;;;;;;6.25;3.78;;;16.90;58.60;;;;;;5021331;28;20498;-44
2023/05/13 11:52:15;;;;;;;4.97;3.58;;;16.80;59.50;;;;;;5004200;28;20053;-44
2023/05/13 11:54:45;;;;;;;3.78;3.05;;;16.70;59.50;;;;;;5019300;28;20167;-44
2023/05/13 11:57:31;;;;;;;5.03;3.22;;;16.70;60.30;;;;;;5019933;28;20063;-44
2023/05/13 12:00:00;;;;;;;5.03;3.25;;;16.70;62.10;;;;;;5019992;28;20057;-43
2023/05/13 12:02:28;;;;;;;4.85;3.35;;;16.70;62.10;;;;;;5018622;28;20056;-44
2023/05/13 12:05:00;;;;;;;5.18;3.70;;;16.70;63.10;;;;;;5021858;28;20053;-43
2023/05/13 12:07:28;;;;;;;6.30;3.75;;;16.70;64.30;;;;;;5021312;28;20049;-43
2023/05/13 12:09:58;;;;;;;6.20;3.63;;;16.80;64.60;;;;;;5020903;28;20061;-41
2023/05/13 12:12:26;;;;;;;8.80;4.53;;;16.90;65.50;;;;;;5012010;28;20049;-43
2023/05/13 12:14:55;;;;;;;6.80;4.75;;;16.90;66.40;;;;;;5013788;28;20057;-43
2023/05/13 12:17:23;;;;;;;7.18;4.70;;;17.00;67.30;;;;;;5018889;28;20054;-44
2023/05/13 12:20:12;;;;;;;7.13;4.82;;;17.10;68.20;;;;;;5021882;28;20061;-42
2023/05/13 12:22:52;;;;;;;6.03;4.68;;;17.20;70.00;;;;;;5019682;28;20061;-42
2023/05/13 12:25:42;;;;;;;6.97;4.18;;;17.40;70.10;;;;;;5023154;28;20405;-44
2023/05/13 12:28:12;;;;;;;5.05;4.28;;;17.50;69.80;;;;;;5022360;28;20065;-43
2023/05/13 12:30:41;;;;;;;6.25;4.10;;;17.60;67.80;;;;;;5020448;28;20061;-43
2023/05/13 12:33:14;;;;;;;6.88;4.05;;;17.70;66.70;;;;;;5015604;28;20057;-43
2023/05/13 12:35:44;;;;;;;8.93;4.45;;;17.70;65.80;;;;;;5019778;28;20730;-44
2023/05/13 12:38:15;;;;;;;7.47;4.03;;;17.80;64.40;;;;;;5022404;28;20108;-43
2023/05/13 12:40:43;;;;;;;7.20;3.97;;;17.90;63.60;;;;;;5022481;28;20064;-43
2023/05/13 12:43:11;;;;;;;6.45;4.10;;;17.90;63.10;;;;;;5021824;28;20428;-42
2023/05/13 12:45:41;;;;;;;6.60;3.88;;;18.00;63.20;;;;;;5018402;28;20060;-42
2023/05/13 12:48:08;;;;;;;5.22;3.70;;;18.10;63.10;;;;;;5019146;28;20053;-43
2023/05/13 12:50:36;;;;;;;5.45;3.42;;;18.10;63.00;;;;;;5017613;28;20053;-44
2023/05/13 12:53:05;;;;;;;5.57;3.95;;;18.20;62.00;;;;;;5016337;28;20481;-43
2023/05/13 12:55:32;;;;;;;5.63;4.10;;;18.30;61.20;;;;;;5022733;28;20053;-43